Time;durP1;ratioP1;P1;durP2;ratioP2;P2;SDS_P1;SDS_P2;PMS_P1;PMS_P2;Temp;Humidity;BMP_temperature;BMP_pressure;BME280_temperature;BME280_humidity;BME280_pressure;Samples;Min_cycle;Max_cycle;Signal;HPM_P1;HPM_P2
2022/01/22 00:01:18;;;;;;;20.80;3.60;;;6.10;99.90;;;;;;5052257;28;20429;-48
2022/01/22 00:03:44;;;;;;;21.92;3.10;;;6.10;99.90;;;;;;5052400;28;20545;-46
2022/01/22 00:06:15;;;;;;;18.17;3.42;;;6.10;99.90;;;;;;5051697;28;20127;-46
2022/01/22 00:08:41;;;;;;;16.55;2.80;;;6.10;99.90;;;;;;5046467;28;20049;-46
2022/01/22 00:11:12;;;;;;;27.10;3.78;;;6.20;99.90;;;;;;5050002;28;20059;-48
2022/01/22 00:16:28;;;;;;;16.80;2.92;;;6.20;99.90;;;;;;5053771;28;20071;-49
2022/01/22 00:18:56;;;;;;;24.10;4.00;;;6.20;99.90;;;;;;5052155;28;20491;-47
2022/01/22 00:21:27;;;;;;;18.15;2.47;;;6.20;99.90;;;;;;5054187;28;20045;-49
2022/01/22 00:23:57;;;;;;;18.23;3.33;;;6.20;99.90;;;;;;5053699;28;20415;-47
2022/01/22 00:26:31;;;;;;;17.45;2.63;;;6.20;99.90;;;;;;5049970;28;20045;-50
2022/01/22 00:29:13;;;;;;;16.27;3.20;;;6.20;99.90;;;;;;5050805;28;20091;-49
2022/01/22 00:31:39;;;;;;;23.25;3.47;;;6.20;99.90;;;;;;5048961;28;20041;-53
2022/01/22 00:34:06;;;;;;;19.63;3.00;;;6.20;99.90;;;;;;5032614;28;20132;-47
2022/01/22 00:36:41;;;;;;;18.25;2.90;;;6.20;99.90;;;;;;5050818;28;20079;-47
2022/01/22 00:39:07;;;;;;;17.95;3.15;;;6.20;99.90;;;;;;5049553;28;20109;-47
2022/01/22 00:41:36;;;;;;;18.70;3.25;;;6.20;99.90;;;;;;5044167;28;20575;-47
2022/01/22 00:44:21;;;;;;;20.58;2.95;;;6.20;99.90;;;;;;5050171;28;20460;-46
2022/01/22 00:46:47;;;;;;;17.67;2.85;;;6.20;99.90;;;;;;5048683;28;20378;-49
2022/01/22 00:49:18;;;;;;;19.15;2.90;;;6.20;99.90;;;;;;5047899;28;20045;-48
2022/01/22 00:51:47;;;;;;;24.73;3.63;;;6.20;99.90;;;;;;5030294;28;20534;-47
2022/01/22 00:54:18;;;;;;;14.48;2.45;;;6.20;99.90;;;;;;5044085;28;20482;-46
2022/01/22 00:56:44;;;;;;;22.00;4.03;;;6.20;99.90;;;;;;5048670;28;20064;-47
2022/01/22 00:59:22;;;;;;;17.17;3.95;;;6.20;99.90;;;;;;5050379;28;20053;-50
2022/01/22 01:02:11;;;;;;;18.88;3.75;;;6.20;99.90;;;;;;5050071;28;20056;-50
2022/01/22 01:04:42;;;;;;;18.63;3.45;;;6.20;99.90;;;;;;5048575;28;20124;-46
2022/01/22 01:07:08;;;;;;;22.90;3.17;;;6.20;99.90;;;;;;5049234;28;20052;-47
2022/01/22 01:09:40;;;;;;;25.75;4.22;;;6.20;99.90;;;;;;5050944;28;20053;-46
2022/01/22 01:12:09;;;;;;;20.88;3.95;;;6.20;99.90;;;;;;5048751;28;20047;-49
2022/01/22 01:14:55;;;;;;;25.27;3.30;;;6.20;99.90;;;;;;5049237;28;20049;-48
2022/01/22 01:17:56;;;;;;;25.80;2.88;;;6.10;99.90;;;;;;5049536;28;20057;-50
2022/01/22 01:34:42;;;;;;;17.00;3.42;;;6.10;99.90;;;;;;5003861;28;20042;-48
2022/01/22 01:37:08;;;;;;;17.48;3.05;;;6.00;99.90;;;;;;5006218;28;20478;-46
2022/01/22 01:39:40;;;;;;;21.08;3.58;;;6.00;99.90;;;;;;5013861;28;20060;-48
2022/01/22 01:42:19;;;;;;;21.98;2.75;;;6.10;99.90;;;;;;5006571;28;20046;-55
2022/01/22 01:44:45;;;;;;;21.45;2.58;;;6.00;99.90;;;;;;4999021;28;20112;-46
2022/01/22 01:47:14;;;;;;;11.57;2.53;;;6.10;99.90;;;;;;5006709;28;20149;-47
2022/01/22 01:49:40;;;;;;;16.92;2.40;;;6.00;99.90;;;;;;5004814;28;20504;-49
2022/01/22 01:52:26;;;;;;;17.60;2.75;;;6.00;99.90;;;;;;5041122;28;20060;-47
2022/01/22 01:55:03;;;;;;;15.35;2.47;;;6.10;99.90;;;;;;5045114;28;20154;-48
2022/01/22 01:57:43;;;;;;;18.83;2.63;;;6.00;99.90;;;;;;5047512;28;20048;-47
2022/01/22 02:00:14;;;;;;;17.50;3.03;;;6.00;99.90;;;;;;5047140;28;20056;-46
2022/01/22 02:02:41;;;;;;;17.85;2.63;;;6.00;99.90;;;;;;5046598;28;20052;-47
2022/01/22 02:05:10;;;;;;;18.17;2.65;;;6.00;99.90;;;;;;5045623;28;20067;-46
2022/01/22 02:07:39;;;;;;;16.02;2.40;;;6.10;99.90;;;;;;5046185;28;20049;-47
2022/01/22 02:10:07;;;;;;;14.05;2.72;;;6.00;99.90;;;;;;5028332;28;20503;-47
2022/01/22 02:23:46;;;;;;;9.07;2.20;;;6.00;99.90;;;;;;5031391;28;20056;-49
2022/01/22 02:26:14;;;;;;;13.38;2.13;;;6.00;99.90;;;;;;5049074;28;20460;-46
2022/01/22 02:28:41;;;;;;;14.98;2.20;;;6.00;99.90;;;;;;5030300;28;20101;-47
2022/01/22 02:36:42;;;;;;;7.60;1.50;;;6.00;99.90;;;;;;5038700;28;20056;-46
2022/01/22 02:39:18;;;;;;;15.25;2.55;;;6.00;99.90;;;;;;5046331;28;20153;-47
2022/01/22 02:41:47;;;;;;;15.00;2.00;;;6.00;99.90;;;;;;5023607;28;20059;-47
2022/01/22 02:44:43;;;;;;;13.48;2.33;;;6.00;99.90;;;;;;5045397;28;20503;-47
2022/01/22 02:47:01;;;;;;;10.25;1.92;;;6.00;99.90;;;;;;5045423;28;20053;-47
2022/01/22 02:49:27;;;;;;;10.90;1.65;;;5.90;99.90;;;;;;5028026;28;20045;-47
2022/01/22 02:52:03;;;;;;;13.57;1.85;;;6.00;99.90;;;;;;5047425;28;20048;-49
2022/01/22 02:54:29;;;;;;;8.57;1.58;;;6.00;99.90;;;;;;5046837;28;20088;-48
2022/01/22 02:56:56;;;;;;;11.48;1.90;;;6.00;99.90;;;;;;5045192;28;20124;-46
2022/01/22 02:59:23;;;;;;;7.22;1.40;;;6.00;99.90;;;;;;5046542;28;20120;-47
2022/01/22 03:01:49;;;;;;;9.90;1.48;;;6.00;99.90;;;;;;5036441;28;20503;-48
2022/01/22 03:04:16;;;;;;;8.55;1.50;;;6.00;99.90;;;;;;5049253;28;20045;-47
2022/01/22 03:06:41;;;;;;;12.50;1.90;;;6.00;99.90;;;;;;5042425;28;20053;-49
2022/01/22 03:09:17;;;;;;;8.82;1.90;;;6.00;99.90;;;;;;5047439;28;20048;-48
2022/01/22 03:15:23;;;;;;;8.75;1.75;;;6.00;99.90;;;;;;4982229;28;20073;-47
2022/01/22 03:20:22;;;;;;;11.82;2.08;;;6.00;99.90;;;;;;4975371;28;20591;-49
2022/01/22 03:27:14;;;;;;;7.03;1.40;;;6.00;99.90;;;;;;4984309;28;20082;-48
2022/01/22 03:29:06;;;;;;;9.70;2.40;;;5.90;99.90;;;;;;4984657;28;20101;-47
2022/01/22 03:31:32;;;;;;;5.57;1.73;;;6.00;99.90;;;;;;4985040;28;20456;-47
2022/01/22 03:34:10;;;;;;;9.02;1.95;;;5.90;99.90;;;;;;4987796;28;20058;-46
2022/01/22 03:39:06;;;;;;;8.70;2.38;;;5.90;99.90;;;;;;5044551;28;20495;-46
2022/01/22 03:41:36;;;;;;;9.95;2.00;;;6.00;99.90;;;;;;5045497;28;20055;-48
2022/01/22 03:44:05;;;;;;;10.07;2.10;;;5.90;99.90;;;;;;5024288;28;20547;-51
2022/01/22 03:46:32;;;;;;;8.23;2.25;;;5.90;99.90;;;;;;5045634;28;20049;-48
2022/01/22 03:48:58;;;;;;;9.68;2.15;;;6.00;99.90;;;;;;5047809;28;20463;-46
2022/01/22 03:51:24;;;;;;;12.52;3.08;;;6.00;99.90;;;;;;5029239;28;20063;-46
2022/01/22 03:53:50;;;;;;;6.90;2.58;;;6.00;99.90;;;;;;5047770;28;20045;-50
2022/01/22 03:56:23;;;;;;;12.98;2.15;;;6.00;99.90;;;;;;5049431;28;20048;-47
2022/01/22 03:58:58;;;;;;;11.20;2.05;;;6.00;99.90;;;;;;5046652;28;20048;-47
2022/01/22 04:09:06;;;;;;;8.98;1.85;;;6.00;99.90;;;;;;5051112;28;20506;-47
2022/01/22 04:11:36;;;;;;;9.90;2.42;;;6.00;99.90;;;;;;5050705;28;20066;-48
2022/01/22 04:14:04;;;;;;;16.13;3.10;;;5.90;99.90;;;;;;5034679;28;20092;-47
2022/01/22 04:16:31;;;;;;;14.30;2.08;;;6.00;99.90;;;;;;5049765;28;20052;-49
2022/01/22 04:27:30;;;;;;;15.15;2.53;;;5.90;99.90;;;;;;5056116;28;20098;-48
2022/01/22 04:29:59;;;;;;;14.80;2.92;;;5.90;99.90;;;;;;5048590;28;20050;-47
2022/01/22 04:32:37;;;;;;;16.15;3.22;;;5.90;99.90;;;;;;5048837;28;20052;-46
2022/01/22 04:35:03;;;;;;;11.43;2.58;;;5.90;99.90;;;;;;5041614;28;20538;-48
2022/01/22 04:37:29;;;;;;;12.07;2.72;;;5.80;99.90;;;;;;5049494;28;20443;-49
2022/01/22 04:40:02;;;;;;;12.95;2.45;;;5.60;99.90;;;;;;5041738;28;20114;-47
2022/01/22 04:42:36;;;;;;;10.70;2.70;;;5.60;99.90;;;;;;5048028;28;20341;-46
2022/01/22 04:45:20;;;;;;;15.77;3.15;;;5.60;99.90;;;;;;5048071;28;20048;-47
2022/01/22 04:55:43;;;;;;;17.67;3.30;;;5.60;99.90;;;;;;5049576;28;20059;-47
2022/01/22 04:58:12;;;;;;;10.63;3.00;;;5.70;99.90;;;;;;5049801;28;20045;-49
2022/01/22 05:00:40;;;;;;;7.75;2.97;;;5.70;99.90;;;;;;5048180;28;20507;-46
2022/01/22 05:03:06;;;;;;;10.50;2.60;;;5.60;99.90;;;;;;5049105;28;20103;-50
2022/01/22 05:05:44;;;;;;;13.18;3.15;;;5.60;99.90;;;;;;5050104;28;20040;-46
2022/01/22 05:08:12;;;;;;;12.43;2.67;;;5.70;99.90;;;;;;5050580;28;20110;-47
2022/01/22 05:10:38;;;;;;;11.20;2.60;;;5.70;99.90;;;;;;5049682;28;20046;-47
2022/01/22 05:13:07;;;;;;;8.05;2.50;;;5.80;99.90;;;;;;5048634;28;20045;-47
2022/01/22 05:15:42;;;;;;;10.43;2.55;;;5.80;99.90;;;;;;5048301;28;20102;-50
2022/01/22 05:18:08;;;;;;;9.07;2.60;;;5.80;99.90;;;;;;5049732;28;20056;-49
2022/01/22 05:21:08;;;;;;;7.20;2.80;;;5.80;99.90;;;;;;5048628;28;20463;-47
2022/01/22 05:23:41;;;;;;;6.40;2.72;;;5.80;99.90;;;;;;5051905;28;20045;-49
2022/01/22 05:27:16;;;;;;;12.57;2.85;;;5.90;99.90;;;;;;5040594;28;20641;-57
2022/01/22 05:39:29;;;;;;;;;;;5.90;99.90;;;;;;5044607;28;20458;-46
2022/01/22 05:42:13;;;;;;;12.30;3.60;;;5.90;99.90;;;;;;5046604;28;20371;-48
2022/01/22 05:44:39;;;;;;;12.05;2.72;;;5.90;99.90;;;;;;5029800;28;20535;-47
2022/01/22 05:47:08;;;;;;;11.98;2.55;;;5.90;99.90;;;;;;5039753;28;20040;-47
2022/01/22 05:49:44;;;;;;;13.98;3.55;;;5.90;99.90;;;;;;5047294;28;20041;-48
2022/01/22 05:52:12;;;;;;;14.00;3.03;;;5.90;99.90;;;;;;5046279;28;20071;-47
2022/01/22 06:00:09;;;;;;;14.10;2.72;;;6.00;99.90;;;;;;5048973;28;20048;-46
2022/01/22 06:02:40;;;;;;;13.60;2.70;;;6.00;99.90;;;;;;5047182;28;20057;-47
2022/01/22 06:05:08;;;;;;;9.20;3.20;;;5.90;99.90;;;;;;5046865;28;20048;-47
2022/01/22 06:07:34;;;;;;;21.92;3.97;;;5.80;99.90;;;;;;5034882;28;20052;-47
2022/01/22 06:12:46;;;;;;;13.57;2.83;;;5.80;99.90;;;;;;5048092;28;20076;-47
2022/01/22 06:15:14;;;;;;;10.35;2.92;;;5.80;99.90;;;;;;5045863;28;20071;-47
2022/01/22 06:17:40;;;;;;;10.10;2.80;;;5.90;99.90;;;;;;5048298;28;20120;-46
2022/01/22 06:20:13;;;;;;;11.75;2.67;;;5.80;99.90;;;;;;5045036;28;20048;-47
2022/01/22 06:22:42;;;;;;;16.63;3.17;;;5.90;99.90;;;;;;5026753;28;20450;-50
2022/01/22 06:25:09;;;;;;;13.20;2.85;;;5.90;99.90;;;;;;5029391;28;20150;-47
2022/01/22 06:27:34;;;;;;;13.88;3.05;;;5.80;99.90;;;;;;5047118;28;20049;-47
2022/01/22 06:30:06;;;;;;;11.35;2.50;;;5.90;99.90;;;;;;5048951;28;20095;-47
2022/01/22 06:32:32;;;;;;;8.25;2.28;;;5.90;99.90;;;;;;5048489;28;20036;-48
2022/01/22 06:34:59;;;;;;;10.30;2.67;;;5.80;99.90;;;;;;5052855;28;20044;-50
2022/01/22 06:37:24;;;;;;;13.18;2.72;;;5.80;99.90;;;;;;5047977;28;20064;-50
2022/01/22 06:42:32;;;;;;;9.35;2.35;;;5.80;99.90;;;;;;5048234;28;20514;-46
2022/01/22 06:45:03;;;;;;;9.52;1.70;;;5.70;99.90;;;;;;5046623;28;20048;-47
2022/01/22 06:47:29;;;;;;;10.65;2.38;;;5.70;99.90;;;;;;5045539;28;20115;-47
2022/01/22 06:49:56;;;;;;;10.18;2.03;;;5.70;99.90;;;;;;5045034;28;20507;-47
2022/01/22 06:52:38;;;;;;;7.43;1.80;;;5.60;99.90;;;;;;5045328;28;20052;-47
2022/01/22 06:55:05;;;;;;;12.85;1.58;;;5.70;99.90;;;;;;5045368;28;20049;-46
2022/01/22 06:57:34;;;;;;;107.05;7.43;;;5.60;99.90;;;;;;5028744;28;20056;-48
2022/01/22 07:00:15;;;;;;;8.65;2.20;;;5.60;99.90;;;;;;5045794;28;20055;-46
2022/01/22 07:03:01;;;;;;;9.25;1.50;;;5.60;99.90;;;;;;5046907;28;20060;-47
2022/01/22 07:05:27;;;;;;;8.68;1.33;;;5.50;99.90;;;;;;5028677;28;20053;-47
2022/01/22 07:07:52;;;;;;;6.82;1.17;;;5.60;99.90;;;;;;5042814;28;20055;-47
2022/01/22 07:10:18;;;;;;;6.88;1.20;;;5.50;99.90;;;;;;5045624;28;20052;-46
2022/01/22 07:12:44;;;;;;;9.75;1.63;;;5.50;99.90;;;;;;5047341;28;20099;-48
2022/01/22 07:15:10;;;;;;;7.47;1.30;;;5.50;99.90;;;;;;5029479;28;20501;-46
2022/01/22 07:17:48;;;;;;;10.98;1.35;;;5.50;99.90;;;;;;5046096;28;20514;-48
2022/01/22 07:20:17;;;;;;;11.10;1.55;;;5.50;99.90;;;;;;5047656;28;20368;-46
2022/01/22 07:25:28;;;;;;;9.35;1.73;;;5.50;99.90;;;;;;5046699;28;20049;-46
2022/01/22 07:27:54;;;;;;;8.23;1.50;;;5.60;99.90;;;;;;5045170;28;20055;-50
2022/01/22 07:30:20;;;;;;;9.48;2.45;;;5.50;99.90;;;;;;5043260;28;20053;-47
2022/01/22 07:32:51;;;;;;;7.03;1.85;;;5.60;99.90;;;;;;5043821;28;20056;-48
2022/01/22 07:35:18;;;;;;;12.07;1.98;;;5.60;99.90;;;;;;5030356;28;20556;-48
2022/01/22 07:37:43;;;;;;;6.68;2.10;;;5.60;99.90;;;;;;5043238;28;20048;-46
2022/01/22 07:40:11;;;;;;;9.50;2.05;;;5.60;99.90;;;;;;5045202;28;20078;-46
2022/01/22 07:43:00;;;;;;;11.52;2.03;;;5.60;99.90;;;;;;5047482;28;20061;-50
2022/01/22 07:45:26;;;;;;;7.82;2.10;;;5.60;99.90;;;;;;5050199;28;20076;-51
2022/01/22 07:47:52;;;;;;;9.57;2.30;;;5.60;99.90;;;;;;5046201;28;20139;-49
2022/01/22 07:50:18;;;;;;;11.10;2.40;;;5.60;99.90;;;;;;5045973;28;20053;-52
2022/01/22 07:52:43;;;;;;;10.98;2.33;;;5.60;99.90;;;;;;5043704;28;20044;-46
2022/01/22 07:55:09;;;;;;;14.82;3.58;;;5.60;99.90;;;;;;5047580;28;20048;-48
2022/01/22 07:57:35;;;;;;;12.52;3.08;;;5.70;99.90;;;;;;5045300;28;20052;-46
2022/01/22 08:00:01;;;;;;;11.32;3.08;;;5.70;99.90;;;;;;5044793;28;20072;-47
2022/01/22 08:02:26;;;;;;;11.50;2.92;;;5.60;99.90;;;;;;5044381;28;20045;-47
2022/01/22 08:05:08;;;;;;;14.80;3.42;;;5.80;99.90;;;;;;5047503;28;20045;-47
2022/01/22 08:07:38;;;;;;;13.73;2.90;;;5.70;99.90;;;;;;5039360;28;20466;-50
2022/01/22 08:10:13;;;;;;;10.38;3.05;;;5.70;99.90;;;;;;5041740;28;20052;-46
2022/01/22 08:12:42;;;;;;;13.15;3.20;;;5.70;99.90;;;;;;5045346;28;20102;-46
2022/01/22 08:15:10;;;;;;;14.32;3.05;;;5.80;99.90;;;;;;5026956;28;20057;-47
2022/01/22 08:17:36;;;;;;;15.50;3.47;;;5.80;99.90;;;;;;5044540;28;20475;-46
2022/01/22 08:20:03;;;;;;;12.35;2.97;;;5.80;99.90;;;;;;5045492;28;20045;-46
2022/01/22 08:22:38;;;;;;;15.50;3.15;;;5.80;99.90;;;;;;5045651;28;20037;-47
2022/01/22 08:25:04;;;;;;;13.07;2.90;;;5.90;99.90;;;;;;5027997;28;20123;-46
2022/01/22 08:29:57;;;;;;;12.18;2.47;;;5.80;99.90;;;;;;5039179;28;20049;-47
2022/01/22 08:37:33;;;;;;;11.73;3.53;;;5.90;99.90;;;;;;5037210;28;20048;-47
2022/01/22 08:40:00;;;;;;;19.58;3.15;;;5.90;99.90;;;;;;5043880;28;20045;-46
2022/01/22 08:42:27;;;;;;;21.95;3.08;;;5.90;99.90;;;;;;5043458;28;20511;-46
2022/01/22 08:44:53;;;;;;;16.70;2.70;;;6.00;99.90;;;;;;5045711;28;20045;-47
2022/01/22 08:47:19;;;;;;;14.32;2.63;;;5.90;99.90;;;;;;5046086;28;20053;-49
2022/01/22 08:49:45;;;;;;;20.13;3.00;;;6.00;99.90;;;;;;5045730;28;20049;-46
2022/01/22 08:52:14;;;;;;;17.00;2.85;;;6.00;99.90;;;;;;5029847;28;20055;-49
2022/01/22 08:54:41;;;;;;;14.02;3.92;;;6.00;99.90;;;;;;5048395;28;20088;-50
2022/01/22 08:57:07;;;;;;;12.90;2.88;;;5.90;99.90;;;;;;5049353;28;20160;-47
2022/01/22 08:59:33;;;;;;;13.43;3.25;;;6.00;99.90;;;;;;5046651;28;20101;-49
2022/01/22 09:02:00;;;;;;;16.00;3.50;;;6.00;99.90;;;;;;5044661;28;20049;-48
2022/01/22 09:04:26;;;;;;;14.07;3.50;;;6.10;99.90;;;;;;5044501;28;20049;-48
2022/01/22 09:06:52;;;;;;;9.52;2.95;;;6.10;99.90;;;;;;5026141;28;20051;-46
2022/01/22 09:09:18;;;;;;;19.27;3.33;;;6.10;99.90;;;;;;5025331;28;20056;-48
2022/01/22 09:11:46;;;;;;;15.07;3.63;;;6.10;99.90;;;;;;5042460;28;20550;-47
2022/01/22 09:14:14;;;;;;;13.38;3.53;;;6.10;99.90;;;;;;5042674;28;20153;-46
2022/01/22 09:16:40;;;;;;;16.30;4.18;;;6.10;99.90;;;;;;5023838;28;20588;-46
2022/01/22 09:19:10;;;;;;;14.63;4.20;;;6.10;99.90;;;;;;5042506;28;20621;-46
2022/01/22 09:21:43;;;;;;;12.90;3.90;;;6.20;99.90;;;;;;5042748;28;20052;-47
2022/01/22 09:24:10;;;;;;;20.58;4.75;;;6.20;99.90;;;;;;5024345;28;20071;-46
2022/01/22 09:26:36;;;;;;;14.63;3.55;;;6.30;99.90;;;;;;5037605;28;20536;-46
2022/01/22 09:29:03;;;;;;;13.93;3.58;;;6.20;99.90;;;;;;5043853;28;20045;-47
2022/01/22 09:31:30;;;;;;;16.98;3.95;;;6.30;99.90;;;;;;5026844;28;20041;-46
2022/01/22 09:33:58;;;;;;;13.35;3.45;;;6.30;99.90;;;;;;5046744;28;20041;-49
2022/01/22 09:36:26;;;;;;;10.35;3.75;;;6.30;99.90;;;;;;5044062;28;20458;-47
2022/01/22 09:38:52;;;;;;;16.90;3.40;;;6.40;99.90;;;;;;5043990;28;20064;-46
2022/01/22 09:41:26;;;;;;;13.93;3.53;;;6.40;99.90;;;;;;5043778;28;20466;-47
2022/01/22 09:43:53;;;;;;;;;;;6.50;99.90;;;;;;5042863;28;20407;-47
2022/01/22 09:46:20;;;;;;;14.85;4.10;;;6.40;99.90;;;;;;5043252;28;20149;-47
2022/01/22 09:48:48;;;;;;;13.00;3.50;;;6.50;99.90;;;;;;5042320;28;20117;-47
2022/01/22 09:51:14;;;;;;;13.38;3.83;;;6.50;99.90;;;;;;5042565;28;20049;-47
2022/01/22 09:53:43;;;;;;;12.48;3.95;;;6.50;99.90;;;;;;5041699;28;20052;-46
2022/01/22 09:56:09;;;;;;;11.50;3.53;;;6.50;99.90;;;;;;5045824;28;20554;-46
2022/01/22 09:58:35;;;;;;;15.98;4.80;;;6.60;99.90;;;;;;5042565;28;20077;-46
2022/01/22 10:01:33;;;;;;;12.27;3.72;;;6.60;99.90;;;;;;5042999;28;20121;-46
2022/01/22 10:04:01;;;;;;;11.48;4.00;;;6.70;99.90;;;;;;5028208;28;20049;-47
2022/01/22 10:06:30;;;;;;;12.43;3.65;;;6.70;99.90;;;;;;5024188;28;20527;-49
2022/01/22 10:09:06;;;;;;;12.43;3.40;;;6.80;99.90;;;;;;5044310;28;20048;-48
2022/01/22 10:11:32;;;;;;;9.40;3.85;;;6.80;99.90;;;;;;5042282;28;20057;-50
2022/01/22 10:13:59;;;;;;;11.63;4.20;;;6.80;99.90;;;;;;5042106;28;20041;-49
2022/01/22 10:16:35;;;;;;;15.00;4.50;;;6.90;99.90;;;;;;5041737;28;20174;-47
2022/01/22 10:19:16;;;;;;;15.85;4.53;;;6.80;99.90;;;;;;5042369;28;20120;-47
2022/01/22 10:21:45;;;;;;;17.95;4.00;;;6.80;99.90;;;;;;5046807;28;20056;-46
2022/01/22 10:24:39;;;;;;;14.57;4.65;;;6.90;99.90;;;;;;5046165;28;20044;-48
2022/01/22 10:30:03;;;;;;;14.68;4.35;;;6.90;99.90;;;;;;5037797;28;20048;-46
2022/01/22 10:35:27;;;;;;;13.13;4.27;;;6.90;99.90;;;;;;4945430;28;20520;-47
2022/01/22 10:37:58;;;;;;;11.80;3.80;;;6.90;99.90;;;;;;4959104;28;20302;-47
2022/01/22 10:40:27;;;;;;;11.18;3.80;;;7.00;99.90;;;;;;4960331;28;20173;-47
2022/01/22 10:43:42;;;;;;;14.65;4.38;;;7.00;99.90;;;;;;4958895;28;20545;-47
2022/01/22 10:49:07;;;;;;;;;;;7.00;99.90;;;;;;4959461;28;20090;-46
2022/01/22 10:51:48;;;;;;;15.93;3.60;;;7.00;99.90;;;;;;4968305;28;20530;-46
2022/01/22 10:54:15;;;;;;;13.13;3.25;;;7.00;99.90;;;;;;4958680;28;20145;-47
2022/01/22 10:56:41;;;;;;;15.75;3.35;;;6.90;99.90;;;;;;4960676;28;20050;-47
2022/01/22 10:59:12;;;;;;;9.90;2.88;;;7.00;99.90;;;;;;4958196;28;20222;-47
2022/01/22 11:01:51;;;;;;;23.35;3.65;;;7.00;99.90;;;;;;4959051;28;20066;-47
2022/01/22 11:04:38;;;;;;;12.43;2.78;;;7.00;99.90;;;;;;4959119;28;20468;-47
2022/01/22 11:07:10;;;;;;;14.60;2.97;;;7.00;99.90;;;;;;4966651;28;20409;-47
2022/01/22 11:09:36;;;;;;;14.25;2.90;;;7.00;99.90;;;;;;4959422;28;20180;-48
2022/01/22 11:12:04;;;;;;;9.50;2.83;;;7.00;99.90;;;;;;4990358;28;20053;-47
2022/01/22 11:14:33;;;;;;;14.43;3.15;;;7.00;99.90;;;;;;5040827;28;20106;-46
2022/01/22 11:17:00;;;;;;;11.60;2.67;;;7.00;99.90;;;;;;5042570;28;20048;-47
2022/01/22 11:19:33;;;;;;;10.88;2.60;;;7.10;99.90;;;;;;5043938;28;20828;-47
2022/01/22 11:22:11;;;;;;;18.05;3.28;;;7.00;99.90;;;;;;5041769;28;20449;-50
2022/01/22 11:24:39;;;;;;;17.33;3.25;;;7.00;99.90;;;;;;5034603;28;20478;-46
2022/01/22 11:27:07;;;;;;;15.85;3.38;;;7.00;99.90;;;;;;5033104;28;20068;-47
2022/01/22 11:29:42;;;;;;;15.75;3.22;;;7.00;99.90;;;;;;5033758;28;20049;-47
2022/01/22 11:32:12;;;;;;;14.10;3.67;;;7.00;99.90;;;;;;5036849;28;20477;-46
2022/01/22 11:34:40;;;;;;;18.35;3.28;;;7.10;99.90;;;;;;5034634;28;20447;-47
2022/01/22 11:37:15;;;;;;;13.13;4.00;;;7.00;99.90;;;;;;5033689;28;20041;-49
2022/01/22 11:39:42;;;;;;;15.30;2.78;;;7.00;99.90;;;;;;5035007;28;20112;-50
2022/01/22 11:42:09;;;;;;;12.98;3.35;;;7.00;99.90;;;;;;5033936;28;20049;-47
2022/01/22 11:44:46;;;;;;;12.60;2.75;;;7.10;99.90;;;;;;5032169;28;20079;-47
2022/01/22 11:47:19;;;;;;;16.60;3.00;;;7.00;99.90;;;;;;5034721;28;20472;-46
2022/01/22 11:50:22;;;;;;;13.07;3.53;;;7.00;99.90;;;;;;5031610;28;20053;-46
2022/01/22 11:52:47;;;;;;;16.60;3.60;;;7.10;99.90;;;;;;4923599;29;20094;-46
2022/01/22 11:55:15;;;;;;;12.38;2.97;;;7.10;99.90;;;;;;4942389;28;20055;-46
2022/01/22 11:57:43;;;;;;;13.75;2.97;;;7.10;99.90;;;;;;4938696;28;20214;-47
2022/01/22 12:00:17;;;;;;;10.57;2.67;;;7.10;99.90;;;;;;4948712;28;20065;-47
2022/01/22 12:03:08;;;;;;;13.45;3.08;;;7.10;99.90;;;;;;4945932;28;20086;-47
2022/01/22 12:06:07;;;;;;;15.65;2.97;;;7.10;99.90;;;;;;4951003;28;20050;-46
2022/01/22 12:09:15;;;;;;;13.75;3.10;;;7.10;99.90;;;;;;4937196;28;20518;-46
2022/01/22 12:14:54;;;;;;;10.43;2.70;;;7.10;99.90;;;;;;4951482;28;20589;-46
2022/01/22 12:17:39;;;;;;;8.10;2.42;;;7.10;99.90;;;;;;4924453;28;20664;-48
2022/01/22 12:20:18;;;;;;;13.65;3.75;;;7.10;99.90;;;;;;4939473;28;20249;-46
2022/01/22 12:22:44;;;;;;;9.77;2.63;;;7.10;99.90;;;;;;4939506;28;20062;-47
2022/01/22 12:25:09;;;;;;;20.35;3.47;;;7.10;99.90;;;;;;4947342;28;20058;-46
2022/01/22 12:27:41;;;;;;;15.52;2.85;;;7.10;99.90;;;;;;5029257;28;20107;-48
2022/01/22 12:30:07;;;;;;;17.52;3.08;;;7.10;99.90;;;;;;5040458;28;20052;-46
2022/01/22 12:32:44;;;;;;;11.50;2.80;;;7.10;99.90;;;;;;5044646;28;20049;-48
2022/01/22 12:35:14;;;;;;;13.30;2.72;;;7.20;99.90;;;;;;5049003;28;20439;-47
2022/01/22 12:37:43;;;;;;;14.77;3.08;;;7.10;99.90;;;;;;5041639;28;20041;-46
2022/01/22 12:40:10;;;;;;;15.55;2.88;;;7.20;99.90;;;;;;5038954;28;20053;-47
2022/01/22 12:42:52;;;;;;;11.02;2.40;;;7.20;99.90;;;;;;5042458;28;20107;-46
2022/01/22 12:45:21;;;;;;;9.80;2.83;;;7.20;99.90;;;;;;5025097;28;20045;-47
2022/01/22 12:47:50;;;;;;;9.57;2.45;;;7.20;99.90;;;;;;5043366;28;20250;-46
2022/01/22 12:50:22;;;;;;;11.95;2.78;;;7.20;99.90;;;;;;5042869;28;20483;-47
2022/01/22 12:52:48;;;;;;;10.80;3.33;;;7.20;99.90;;;;;;5036145;28;20120;-49
2022/01/22 12:55:37;;;;;;;12.73;2.70;;;7.20;99.90;;;;;;5046352;28;20057;-47
2022/01/22 12:58:03;;;;;;;10.73;3.13;;;7.20;99.90;;;;;;5043432;28;20086;-46
2022/01/22 13:00:29;;;;;;;14.40;2.25;;;7.20;99.90;;;;;;5042972;28;20144;-47
2022/01/22 13:02:56;;;;;;;23.35;3.17;;;7.20;99.90;;;;;;5041852;28;20513;-46
2022/01/22 13:05:23;;;;;;;9.50;2.35;;;7.20;99.90;;;;;;5043104;28;20533;-46
2022/01/22 13:07:56;;;;;;;10.77;2.42;;;7.20;99.90;;;;;;5025782;28;20041;-47
2022/01/22 13:10:32;;;;;;;14.88;2.63;;;7.30;99.90;;;;;;5042572;28;20048;-48
2022/01/22 13:12:59;;;;;;;9.50;2.13;;;7.30;99.90;;;;;;5024147;28;20134;-46
2022/01/22 13:15:27;;;;;;;23.58;4.63;;;7.30;99.90;;;;;;5042947;28;20045;-47
2022/01/22 13:17:58;;;;;;;10.68;2.80;;;7.30;99.90;;;;;;5043048;28;20053;-46
2022/01/22 13:20:27;;;;;;;11.77;2.63;;;7.30;99.90;;;;;;5042575;28;20525;-47
2022/01/22 13:22:54;;;;;;;9.75;2.17;;;7.20;99.90;;;;;;5040097;28;20127;-47
2022/01/22 13:25:20;;;;;;;9.77;2.30;;;7.20;99.90;;;;;;5038375;28;20075;-46
2022/01/22 13:28:19;;;;;;;8.82;2.08;;;7.10;99.90;;;;;;5043382;28;20045;-46
2022/01/22 13:30:51;;;;;;;10.35;3.10;;;7.10;99.90;;;;;;4956705;28;20055;-47
2022/01/22 13:49:04;;;;;;;13.50;3.03;;;7.10;99.90;;;;;;4954407;28;20051;-46
2022/01/22 13:51:31;;;;;;;9.18;2.97;;;7.00;99.90;;;;;;4965839;28;20054;-46
2022/01/22 13:53:58;;;;;;;9.30;2.97;;;7.10;99.90;;;;;;4962093;28;20546;-46
2022/01/22 13:56:55;;;;;;;8.27;2.58;;;7.10;99.90;;;;;;4969201;28;20584;-49
2022/01/22 13:59:25;;;;;;;9.20;1.85;;;7.10;99.90;;;;;;4962449;28;20063;-46
2022/01/22 14:02:30;;;;;;;5.10;1.60;;;7.10;99.90;;;;;;4960924;28;20057;-46
2022/01/22 14:05:06;;;;;;;7.45;1.70;;;7.20;99.90;;;;;;4959956;28;20043;-46
2022/01/22 14:07:41;;;;;;;10.63;1.67;;;7.10;99.90;;;;;;5015434;28;20092;-49
2022/01/22 14:10:08;;;;;;;4.90;1.45;;;7.10;99.90;;;;;;5038351;28;20044;-46
2022/01/22 14:12:46;;;;;;;8.25;2.13;;;7.10;99.90;;;;;;5043264;28;20079;-46
2022/01/22 14:15:29;;;;;;;7.65;1.50;;;7.10;99.90;;;;;;5024222;28;20063;-46
2022/01/22 14:18:14;;;;;;;9.70;1.77;;;7.10;99.90;;;;;;5041363;28;20175;-48
2022/01/22 14:20:52;;;;;;;5.43;1.85;;;7.10;99.90;;;;;;5036536;28;20145;-46
2022/01/22 14:23:23;;;;;;;8.57;2.05;;;7.10;99.90;;;;;;5040734;28;20060;-47
2022/01/22 14:26:02;;;;;;;10.80;1.55;;;7.10;99.90;;;;;;5038256;28;20444;-46
2022/01/22 14:28:49;;;;;;;9.13;1.95;;;7.10;99.90;;;;;;5034136;28;20127;-46
2022/01/22 14:31:35;;;;;;;5.35;1.10;;;7.00;99.90;;;;;;5040142;28;20515;-45
2022/01/22 14:34:13;;;;;;;5.97;1.80;;;7.00;99.90;;;;;;5043017;28;20109;-46
2022/01/22 14:36:47;;;;;;;8.27;1.80;;;7.00;99.90;;;;;;5033657;28;20381;-47
2022/01/22 14:44:49;;;;;;;9.68;1.60;;;7.00;99.90;;;;;;5016518;28;20055;-48
2022/01/22 14:47:20;;;;;;;7.43;2.00;;;6.90;99.90;;;;;;5041747;28;20453;-45
2022/01/22 14:49:49;;;;;;;7.70;1.85;;;6.90;99.90;;;;;;5041582;28;20049;-47
2022/01/22 14:52:18;;;;;;;8.82;1.50;;;6.90;99.90;;;;;;5025095;28;20049;-46
2022/01/22 14:54:46;;;;;;;7.25;1.27;;;6.80;99.90;;;;;;5045891;28;20072;-47
2022/01/22 14:57:14;;;;;;;9.40;1.50;;;6.80;99.90;;;;;;5026293;28;20119;-48
2022/01/22 14:59:42;;;;;;;7.65;1.63;;;6.80;99.90;;;;;;5042086;28;20048;-47
2022/01/22 15:02:09;;;;;;;7.20;1.50;;;6.80;99.90;;;;;;5004952;28;20067;-46
2022/01/22 15:04:36;;;;;;;7.70;2.80;;;6.70;99.90;;;;;;5037171;28;20056;-47
2022/01/22 15:07:04;;;;;;;16.83;1.90;;;6.70;99.90;;;;;;5041024;28;20056;-48
2022/01/22 15:09:31;;;;;;;10.55;1.80;;;6.70;99.90;;;;;;5022651;28;20519;-48
2022/01/22 15:11:58;;;;;;;12.20;1.60;;;6.70;99.90;;;;;;5023229;28;20053;-47
2022/01/22 15:14:26;;;;;;;10.05;1.75;;;6.60;99.90;;;;;;5040541;28;20052;-46
2022/01/22 15:17:14;;;;;;;6.78;1.90;;;6.60;99.90;;;;;;5005879;28;20411;-47
2022/01/22 15:19:42;;;;;;;11.23;2.50;;;6.60;99.90;;;;;;5040135;28;20078;-46
2022/01/22 15:22:09;;;;;;;8.70;1.52;;;6.60;99.90;;;;;;5039983;28;20057;-47
2022/01/22 15:24:39;;;;;;;15.15;2.20;;;6.60;99.90;;;;;;5039508;28;20102;-46
2022/01/22 15:27:06;;;;;;;9.23;1.98;;;6.60;99.90;;;;;;5034462;28;20404;-48